sensor_id;sensor_type;location;lat;lon;timestamp;pressure;altitude;pressure_sealevel;temperature;humidity
74790;BME280;63318;52.406;13.416;2023-03-30T00:00:12;100762.42;;;8.63;72.29
74790;BME280;63318;52.406;13.416;2023-03-30T00:02:41;100760.64;;;8.62;72.40
74790;BME280;63318;52.406;13.416;2023-03-30T00:05:10;100759.52;;;8.61;72.28
74790;BME280;63318;52.406;13.416;2023-03-30T00:07:38;100763.15;;;8.59;72.39
74790;BME280;63318;52.406;13.416;2023-03-30T00:10:10;100763.20;;;8.58;72.46
74790;BME280;63318;52.406;13.416;2023-03-30T00:12:40;100761.29;;;8.56;72.63
74790;BME280;63318;52.406;13.416;2023-03-30T00:15:11;100757.85;;;8.55;72.66
74790;BME280;63318;52.406;13.416;2023-03-30T00:17:41;100757.12;;;8.53;73.18
74790;BME280;63318;52.406;13.416;2023-03-30T00:20:12;100754.34;;;8.51;73.01
74790;BME280;63318;52.406;13.416;2023-03-30T00:22:42;100748.00;;;8.50;73.07
74790;BME280;63318;52.406;13.416;2023-03-30T00:25:14;100746.66;;;8.49;73.12
74790;BME280;63318;52.406;13.416;2023-03-30T00:27:43;100739.73;;;8.47;73.40
74790;BME280;63318;52.406;13.416;2023-03-30T00:30:15;100740.15;;;8.46;73.55
74790;BME280;63318;52.406;13.416;2023-03-30T00:32:45;100741.34;;;8.44;73.67
74790;BME280;63318;52.406;13.416;2023-03-30T00:35:13;100737.35;;;8.43;73.78
74790;BME280;63318;52.406;13.416;2023-03-30T00:37:42;100732.79;;;8.42;74.16
74790;BME280;63318;52.406;13.416;2023-03-30T00:40:17;100727.30;;;8.40;74.04
74790;BME280;63318;52.406;13.416;2023-03-30T00:42:46;100726.95;;;8.38;74.50
74790;BME280;63318;52.406;13.416;2023-03-30T00:45:21;100721.12;;;8.37;74.45
74790;BME280;63318;52.406;13.416;2023-03-30T00:47:55;100715.85;;;8.36;74.70
74790;BME280;63318;52.406;13.416;2023-03-30T00:50:29;100710.52;;;8.34;74.54
74790;BME280;63318;52.406;13.416;2023-03-30T00:52:59;100703.02;;;8.33;74.36
74790;BME280;63318;52.406;13.416;2023-03-30T00:55:30;100698.65;;;8.31;74.50
74790;BME280;63318;52.406;13.416;2023-03-30T00:58:00;100688.73;;;8.30;74.74
74790;BME280;63318;52.406;13.416;2023-03-30T01:00:31;100684.94;;;8.29;75.01
74790;BME280;63318;52.406;13.416;2023-03-30T01:03:03;100678.34;;;8.27;74.86
74790;BME280;63318;52.406;13.416;2023-03-30T01:05:32;100675.45;;;8.26;74.95
74790;BME280;63318;52.406;13.416;2023-03-30T01:08:01;100668.70;;;8.24;74.90
74790;BME280;63318;52.406;13.416;2023-03-30T01:10:30;100663.42;;;8.23;74.96
74790;BME280;63318;52.406;13.416;2023-03-30T01:12:59;100660.41;;;8.22;75.32
74790;BME280;63318;52.406;13.416;2023-03-30T01:15:30;100657.30;;;8.20;75.58
74790;BME280;63318;52.406;13.416;2023-03-30T01:18:10;100649.70;;;8.18;75.61
74790;BME280;63318;52.406;13.416;2023-03-30T01:24:10;100643.70;;;8.15;75.90
74790;BME280;63318;52.406;13.416;2023-03-30T01:26:51;100642.69;;;8.14;76.17
74790;BME280;63318;52.406;13.416;2023-03-30T01:29:39;100641.08;;;8.12;76.21
74790;BME280;63318;52.406;13.416;2023-03-30T01:32:38;100633.60;;;8.12;76.24
74790;BME280;63318;52.406;13.416;2023-03-30T01:40:55;100610.33;;;8.09;76.21
74790;BME280;63318;52.406;13.416;2023-03-30T01:43:34;100610.48;;;8.08;76.39
74790;BME280;63318;52.406;13.416;2023-03-30T01:46:07;100602.34;;;8.07;76.31
74790;BME280;63318;52.406;13.416;2023-03-30T01:48:42;100594.69;;;8.06;76.19
74790;BME280;63318;52.406;13.416;2023-03-30T01:51:20;100584.39;;;8.06;76.42
74790;BME280;63318;52.406;13.416;2023-03-30T01:53:56;100582.63;;;8.05;76.55
74790;BME280;63318;52.406;13.416;2023-03-30T01:56:28;100585.38;;;8.04;76.89
74790;BME280;63318;52.406;13.416;2023-03-30T01:59:05;100583.42;;;8.03;76.86
74790;BME280;63318;52.406;13.416;2023-03-30T02:01:38;100583.25;;;8.02;76.99
74790;BME280;63318;52.406;13.416;2023-03-30T02:04:10;100585.36;;;8.02;77.13
74790;BME280;63318;52.406;13.416;2023-03-30T02:06:43;100585.97;;;8.01;77.14
74790;BME280;63318;52.406;13.416;2023-03-30T02:09:16;100590.77;;;8.01;77.34
74790;BME280;63318;52.406;13.416;2023-03-30T02:11:48;100600.30;;;8.02;77.09
74790;BME280;63318;52.406;13.416;2023-03-30T02:14:20;100599.69;;;8.01;77.07
74790;BME280;63318;52.406;13.416;2023-03-30T02:16:53;100589.61;;;8.01;77.41
74790;BME280;63318;52.406;13.416;2023-03-30T02:19:24;100580.04;;;8.01;77.25
74790;BME280;63318;52.406;13.416;2023-03-30T02:21:53;100574.63;;;8.01;77.55
74790;BME280;63318;52.406;13.416;2023-03-30T02:24:25;100568.92;;;8.01;77.63
74790;BME280;63318;52.406;13.416;2023-03-30T02:26:55;100568.31;;;8.02;77.27
74790;BME280;63318;52.406;13.416;2023-03-30T02:29:24;100559.25;;;8.03;77.47
74790;BME280;63318;52.406;13.416;2023-03-30T02:31:55;100559.59;;;8.04;77.48
74790;BME280;63318;52.406;13.416;2023-03-30T02:34:35;100552.73;;;8.04;77.60
74790;BME280;63318;52.406;13.416;2023-03-30T02:37:19;100545.70;;;8.04;77.81
74790;BME280;63318;52.406;13.416;2023-03-30T02:40:00;100552.52;;;8.04;77.95
74790;BME280;63318;52.406;13.416;2023-03-30T02:42:41;100542.39;;;8.04;77.92
74790;BME280;63318;52.406;13.416;2023-03-30T02:45:21;100531.15;;;8.04;77.70
74790;BME280;63318;52.406;13.416;2023-03-30T02:48:10;100529.77;;;8.03;77.80
74790;BME280;63318;52.406;13.416;2023-03-30T02:50:45;100515.83;;;8.03;77.80
74790;BME280;63318;52.406;13.416;2023-03-30T02:53:26;100511.67;;;8.03;77.95
74790;BME280;63318;52.406;13.416;2023-03-30T02:56:04;100517.88;;;8.02;78.16
74790;BME280;63318;52.406;13.416;2023-03-30T02:58:38;100522.24;;;8.02;77.89
74790;BME280;63318;52.406;13.416;2023-03-30T03:01:14;100520.19;;;8.02;77.86
74790;BME280;63318;52.406;13.416;2023-03-30T03:03:47;100518.52;;;8.02;77.98
74790;BME280;63318;52.406;13.416;2023-03-30T03:06:17;100515.92;;;8.02;78.09
74790;BME280;63318;52.406;13.416;2023-03-30T03:08:46;100508.18;;;8.02;77.86
74790;BME280;63318;52.406;13.416;2023-03-30T03:11:15;100504.31;;;8.02;77.91
74790;BME280;63318;52.406;13.416;2023-03-30T03:13:44;100499.33;;;8.02;78.02
74790;BME280;63318;52.406;13.416;2023-03-30T03:16:12;100495.45;;;8.02;77.73
74790;BME280;63318;52.406;13.416;2023-03-30T03:18:42;100495.85;;;8.02;77.92
74790;BME280;63318;52.406;13.416;2023-03-30T03:21:11;100490.30;;;8.02;78.19
74790;BME280;63318;52.406;13.416;2023-03-30T03:23:41;100497.02;;;8.02;78.40
74790;BME280;63318;52.406;13.416;2023-03-30T03:26:10;100489.05;;;8.02;78.44
74790;BME280;63318;52.406;13.416;2023-03-30T03:28:39;100483.63;;;8.03;78.07
74790;BME280;63318;52.406;13.416;2023-03-30T03:31:07;100479.42;;;8.02;78.42
74790;BME280;63318;52.406;13.416;2023-03-30T03:33:36;100474.39;;;8.03;78.28
74790;BME280;63318;52.406;13.416;2023-03-30T03:36:05;100478.98;;;8.03;78.53
74790;BME280;63318;52.406;13.416;2023-03-30T03:38:34;100480.02;;;8.03;78.43
74790;BME280;63318;52.406;13.416;2023-03-30T03:41:02;100474.33;;;8.03;78.74
74790;BME280;63318;52.406;13.416;2023-03-30T03:43:32;100472.73;;;8.04;78.74
74790;BME280;63318;52.406;13.416;2023-03-30T03:46:00;100465.92;;;8.04;78.80
74790;BME280;63318;52.406;13.416;2023-03-30T03:48:29;100458.84;;;8.04;78.85
74790;BME280;63318;52.406;13.416;2023-03-30T03:50:58;100449.38;;;8.04;78.88
74790;BME280;63318;52.406;13.416;2023-03-30T03:53:28;100439.59;;;8.04;78.80
74790;BME280;63318;52.406;13.416;2023-03-30T03:55:57;100434.02;;;8.05;78.79
74790;BME280;63318;52.406;13.416;2023-03-30T03:58:27;100430.53;;;8.05;78.86
74790;BME280;63318;52.406;13.416;2023-03-30T04:01:00;100424.00;;;8.04;78.93
74790;BME280;63318;52.406;13.416;2023-03-30T04:03:29;100427.71;;;8.05;79.15
74790;BME280;63318;52.406;13.416;2023-03-30T04:06:00;100419.84;;;8.05;79.18
74790;BME280;63318;52.406;13.416;2023-03-30T04:08:29;100417.91;;;8.04;78.83
74790;BME280;63318;52.406;13.416;2023-03-30T04:11:04;100410.31;;;8.04;79.08
74790;BME280;63318;52.406;13.416;2023-03-30T04:13:33;100398.33;;;8.04;79.08
74790;BME280;63318;52.406;13.416;2023-03-30T04:16:02;100399.54;;;8.05;79.00
74790;BME280;63318;52.406;13.416;2023-03-30T04:18:31;100399.59;;;8.04;79.11
74790;BME280;63318;52.406;13.416;2023-03-30T04:21:01;100397.11;;;8.05;79.26
74790;BME280;63318;52.406;13.416;2023-03-30T04:23:30;100392.67;;;8.04;79.45
74790;BME280;63318;52.406;13.416;2023-03-30T04:25:58;100390.85;;;8.04;79.29
74790;BME280;63318;52.406;13.416;2023-03-30T04:28:27;100397.16;;;8.03;79.64
74790;BME280;63318;52.406;13.416;2023-03-30T04:31:00;100394.84;;;8.03;79.24
74790;BME280;63318;52.406;13.416;2023-03-30T04:33:30;100392.57;;;8.03;79.32
74790;BME280;63318;52.406;13.416;2023-03-30T04:36:00;100388.54;;;8.03;79.50
74790;BME280;63318;52.406;13.416;2023-03-30T04:38:28;100386.55;;;8.03;79.77
74790;BME280;63318;52.406;13.416;2023-03-30T04:40:58;100394.02;;;8.03;79.54
74790;BME280;63318;52.406;13.416;2023-03-30T04:43:27;100391.68;;;8.04;79.83
74790;BME280;63318;52.406;13.416;2023-03-30T04:45:57;100389.75;;;8.05;79.52
74790;BME280;63318;52.406;13.416;2023-03-30T04:48:25;100386.65;;;8.04;79.72
74790;BME280;63318;52.406;13.416;2023-03-30T04:50:54;100383.02;;;8.05;79.60
74790;BME280;63318;52.406;13.416;2023-03-30T04:53:23;100378.59;;;8.05;79.50
74790;BME280;63318;52.406;13.416;2023-03-30T04:55:52;100379.04;;;8.06;79.60
74790;BME280;63318;52.406;13.416;2023-03-30T04:58:21;100384.52;;;8.06;79.83
74790;BME280;63318;52.406;13.416;2023-03-30T05:00:50;100386.17;;;8.07;79.42
74790;BME280;63318;52.406;13.416;2023-03-30T05:03:18;100391.84;;;8.08;79.75
74790;BME280;63318;52.406;13.416;2023-03-30T05:05:46;100390.95;;;8.08;79.49
74790;BME280;63318;52.406;13.416;2023-03-30T05:08:15;100386.86;;;8.10;79.93
74790;BME280;63318;52.406;13.416;2023-03-30T05:10:44;100370.66;;;8.10;79.57
74790;BME280;63318;52.406;13.416;2023-03-30T05:13:12;100359.38;;;8.12;79.45
74790;BME280;63318;52.406;13.416;2023-03-30T05:15:40;100355.77;;;8.13;79.38
74790;BME280;63318;52.406;13.416;2023-03-30T05:18:09;100348.99;;;8.15;79.58
74790;BME280;63318;52.406;13.416;2023-03-30T05:20:38;100349.17;;;8.16;79.60
74790;BME280;63318;52.406;13.416;2023-03-30T05:23:06;100340.43;;;8.17;79.63
74790;BME280;63318;52.406;13.416;2023-03-30T05:25:35;100332.52;;;8.19;79.23
74790;BME280;63318;52.406;13.416;2023-03-30T05:28:04;100320.58;;;8.19;79.24
74790;BME280;63318;52.406;13.416;2023-03-30T05:30:32;100308.58;;;8.20;79.33
74790;BME280;63318;52.406;13.416;2023-03-30T05:33:01;100312.17;;;8.21;79.37
74790;BME280;63318;52.406;13.416;2023-03-30T05:35:29;100310.02;;;8.22;79.68
74790;BME280;63318;52.406;13.416;2023-03-30T05:37:58;100314.55;;;8.22;79.51
74790;BME280;63318;52.406;13.416;2023-03-30T05:40:26;100321.48;;;8.23;79.66
74790;BME280;63318;52.406;13.416;2023-03-30T05:42:55;100326.28;;;8.22;79.60
74790;BME280;63318;52.406;13.416;2023-03-30T05:45:23;100328.23;;;8.23;79.60
74790;BME280;63318;52.406;13.416;2023-03-30T05:47:54;100322.09;;;8.23;79.52
74790;BME280;63318;52.406;13.416;2023-03-30T05:50:22;100319.83;;;8.23;79.25
74790;BME280;63318;52.406;13.416;2023-03-30T05:52:51;100320.33;;;8.24;79.49
74790;BME280;63318;52.406;13.416;2023-03-30T05:55:19;100317.84;;;8.24;79.27
74790;BME280;63318;52.406;13.416;2023-03-30T05:57:48;100322.15;;;8.25;79.36
74790;BME280;63318;52.406;13.416;2023-03-30T06:00:19;100325.05;;;8.25;79.55
74790;BME280;63318;52.406;13.416;2023-03-30T06:02:47;100319.98;;;8.26;79.37
74790;BME280;63318;52.406;13.416;2023-03-30T06:05:16;100311.96;;;8.27;79.52
74790;BME280;63318;52.406;13.416;2023-03-30T06:07:44;100302.39;;;8.29;79.55
74790;BME280;63318;52.406;13.416;2023-03-30T06:10:13;100293.23;;;8.31;79.27
74790;BME280;63318;52.406;13.416;2023-03-30T06:12:42;100292.38;;;8.33;79.37
74790;BME280;63318;52.406;13.416;2023-03-30T06:15:12;100289.63;;;8.33;79.38
74790;BME280;63318;52.406;13.416;2023-03-30T06:17:40;100294.56;;;8.36;79.41
74790;BME280;63318;52.406;13.416;2023-03-30T06:20:10;100291.75;;;8.37;79.38
74790;BME280;63318;52.406;13.416;2023-03-30T06:22:41;100283.95;;;8.39;79.39
74790;BME280;63318;52.406;13.416;2023-03-30T06:25:11;100274.53;;;8.41;79.37
74790;BME280;63318;52.406;13.416;2023-03-30T06:27:39;100268.35;;;8.43;79.33
74790;BME280;63318;52.406;13.416;2023-03-30T06:30:11;100266.73;;;8.45;79.25
74790;BME280;63318;52.406;13.416;2023-03-30T06:32:40;100266.83;;;8.49;79.44
74790;BME280;63318;52.406;13.416;2023-03-30T06:35:09;100272.59;;;8.54;79.72
74790;BME280;63318;52.406;13.416;2023-03-30T06:37:38;100274.94;;;8.59;79.51
74790;BME280;63318;52.406;13.416;2023-03-30T06:40:09;100270.58;;;8.65;79.47
74790;BME280;63318;52.406;13.416;2023-03-30T06:42:38;100276.50;;;8.70;79.68
74790;BME280;63318;52.406;13.416;2023-03-30T06:45:08;100276.08;;;8.74;79.56
74790;BME280;63318;52.406;13.416;2023-03-30T06:47:37;100273.30;;;8.78;79.41
74790;BME280;63318;52.406;13.416;2023-03-30T06:50:07;100271.06;;;8.82;79.38
74790;BME280;63318;52.406;13.416;2023-03-30T06:52:37;100275.50;;;8.89;79.34
74790;BME280;63318;52.406;13.416;2023-03-30T06:55:07;100273.01;;;8.94;79.48
74790;BME280;63318;52.406;13.416;2023-03-30T06:57:35;100266.48;;;8.99;79.34
74790;BME280;63318;52.406;13.416;2023-03-30T07:00:04;100264.05;;;9.05;79.33
74790;BME280;63318;52.406;13.416;2023-03-30T07:02:33;100264.77;;;9.14;79.63
74790;BME280;63318;52.406;13.416;2023-03-30T07:05:01;100255.97;;;9.22;79.60
74790;BME280;63318;52.406;13.416;2023-03-30T07:07:30;100257.58;;;9.27;79.53
74790;BME280;63318;52.406;13.416;2023-03-30T07:09:58;100254.51;;;9.32;79.45
74790;BME280;63318;52.406;13.416;2023-03-30T07:12:26;100241.16;;;9.36;79.48
74790;BME280;63318;52.406;13.416;2023-03-30T07:14:55;100243.71;;;9.41;79.20
74790;BME280;63318;52.406;13.416;2023-03-30T07:17:23;100231.38;;;9.54;79.14
74790;BME280;63318;52.406;13.416;2023-03-30T07:19:52;100230.22;;;9.74;79.03
74790;BME280;63318;52.406;13.416;2023-03-30T07:22:20;100224.20;;;10.00;78.99
74790;BME280;63318;52.406;13.416;2023-03-30T07:24:48;100220.94;;;10.28;78.84
74790;BME280;63318;52.406;13.416;2023-03-30T07:27:17;100213.52;;;10.55;78.52
74790;BME280;63318;52.406;13.416;2023-03-30T07:29:45;100207.09;;;10.78;78.07
74790;BME280;63318;52.406;13.416;2023-03-30T07:32:13;100212.38;;;10.92;77.73
74790;BME280;63318;52.406;13.416;2023-03-30T07:34:42;100209.51;;;11.12;77.53
74790;BME280;63318;52.406;13.416;2023-03-30T07:37:12;100207.34;;;11.36;77.29
74790;BME280;63318;52.406;13.416;2023-03-30T07:39:41;100204.48;;;11.59;76.72
74790;BME280;63318;52.406;13.416;2023-03-30T07:42:10;100204.96;;;11.80;75.98
74790;BME280;63318;52.406;13.416;2023-03-30T07:44:38;100206.95;;;12.01;75.79
74790;BME280;63318;52.406;13.416;2023-03-30T07:47:06;100208.48;;;12.20;75.12
74790;BME280;63318;52.406;13.416;2023-03-30T07:49:35;100198.66;;;12.39;74.67
74790;BME280;63318;52.406;13.416;2023-03-30T07:52:04;100192.19;;;12.54;74.43
74790;BME280;63318;52.406;13.416;2023-03-30T07:54:33;100191.23;;;12.74;73.99
74790;BME280;63318;52.406;13.416;2023-03-30T07:57:01;100191.61;;;12.96;73.79
74790;BME280;63318;52.406;13.416;2023-03-30T07:59:30;100193.09;;;13.16;73.20
74790;BME280;63318;52.406;13.416;2023-03-30T08:01:58;100193.94;;;13.35;72.51
74790;BME280;63318;52.406;13.416;2023-03-30T08:04:26;100194.95;;;13.52;71.36
74790;BME280;63318;52.406;13.416;2023-03-30T08:06:55;100195.34;;;13.65;70.75
74790;BME280;63318;52.406;13.416;2023-03-30T08:09:24;100196.21;;;13.80;70.92
74790;BME280;63318;52.406;13.416;2023-03-30T08:11:53;100185.80;;;14.00;70.86
74790;BME280;63318;52.406;13.416;2023-03-30T08:14:21;100180.78;;;14.14;70.84
74790;BME280;63318;52.406;13.416;2023-03-30T08:16:50;100176.60;;;14.27;70.11
74790;BME280;63318;52.406;13.416;2023-03-30T08:19:19;100177.40;;;14.46;69.97
74790;BME280;63318;52.406;13.416;2023-03-30T08:21:47;100180.90;;;14.63;68.79
74790;BME280;63318;52.406;13.416;2023-03-30T08:24:15;100178.98;;;14.69;69.00
74790;BME280;63318;52.406;13.416;2023-03-30T08:26:44;100174.48;;;14.72;68.71
74790;BME280;63318;52.406;13.416;2023-03-30T08:29:12;100163.64;;;14.80;68.16
74790;BME280;63318;52.406;13.416;2023-03-30T08:31:40;100155.61;;;14.97;67.50
74790;BME280;63318;52.406;13.416;2023-03-30T08:34:08;100156.36;;;15.19;67.94
74790;BME280;63318;52.406;13.416;2023-03-30T08:36:36;100151.26;;;15.41;67.49
74790;BME280;63318;52.406;13.416;2023-03-30T08:39:05;100149.95;;;15.63;66.81
74790;BME280;63318;52.406;13.416;2023-03-30T08:42:01;100146.40;;;15.83;64.57
74790;BME280;63318;52.406;13.416;2023-03-30T08:44:36;100154.34;;;15.93;64.70
74790;BME280;63318;52.406;13.416;2023-03-30T08:47:10;100159.23;;;15.95;63.99
74790;BME280;63318;52.406;13.416;2023-03-30T08:49:43;100160.55;;;16.04;63.15
74790;BME280;63318;52.406;13.416;2023-03-30T08:52:20;100157.78;;;16.14;63.28
74790;BME280;63318;52.406;13.416;2023-03-30T08:54:51;100158.49;;;16.22;62.94
74790;BME280;63318;52.406;13.416;2023-03-30T08:57:29;100161.64;;;16.34;63.61
74790;BME280;63318;52.406;13.416;2023-03-30T09:00:06;100153.85;;;16.51;63.26
74790;BME280;63318;52.406;13.416;2023-03-30T09:02:46;100145.06;;;16.63;62.04
74790;BME280;63318;52.406;13.416;2023-03-30T09:05:20;100145.90;;;16.67;60.43
74790;BME280;63318;52.406;13.416;2023-03-30T09:07:54;100149.83;;;16.67;60.77
74790;BME280;63318;52.406;13.416;2023-03-30T09:10:27;100152.27;;;16.68;60.48
74790;BME280;63318;52.406;13.416;2023-03-30T09:13:00;100151.54;;;16.64;60.80
74790;BME280;63318;52.406;13.416;2023-03-30T09:15:32;100146.45;;;16.55;59.99
74790;BME280;63318;52.406;13.416;2023-03-30T09:18:05;100146.15;;;16.48;60.69
74790;BME280;63318;52.406;13.416;2023-03-30T09:20:36;100145.86;;;16.44;61.18
74790;BME280;63318;52.406;13.416;2023-03-30T09:23:12;100151.67;;;16.39;60.99
74790;BME280;63318;52.406;13.416;2023-03-30T09:25:44;100146.89;;;16.38;61.35
74790;BME280;63318;52.406;13.416;2023-03-30T09:28:18;100137.87;;;16.34;60.98
74790;BME280;63318;52.406;13.416;2023-03-30T09:30:53;100137.15;;;16.32;60.88
74790;BME280;63318;52.406;13.416;2023-03-30T09:33:29;100135.99;;;16.30;61.08
74790;BME280;63318;52.406;13.416;2023-03-30T09:36:11;100136.90;;;16.27;61.47
74790;BME280;63318;52.406;13.416;2023-03-30T09:38:40;100134.33;;;16.27;61.18
74790;BME280;63318;52.406;13.416;2023-03-30T09:41:19;100146.96;;;16.23;60.68
74790;BME280;63318;52.406;13.416;2023-03-30T09:43:52;100149.88;;;16.17;61.03
74790;BME280;63318;52.406;13.416;2023-03-30T09:46:23;100154.65;;;16.14;61.27
74790;BME280;63318;52.406;13.416;2023-03-30T09:48:52;100148.80;;;16.09;61.36
74790;BME280;63318;52.406;13.416;2023-03-30T09:51:23;100151.00;;;16.06;61.54
74790;BME280;63318;52.406;13.416;2023-03-30T09:53:59;100148.65;;;16.06;61.49
74790;BME280;63318;52.406;13.416;2023-03-30T09:56:36;100149.55;;;16.06;61.60
74790;BME280;63318;52.406;13.416;2023-03-30T09:59:20;100145.00;;;16.05;61.36
74790;BME280;63318;52.406;13.416;2023-03-30T10:02:09;100151.55;;;16.03;61.21
74790;BME280;63318;52.406;13.416;2023-03-30T10:05:02;100152.73;;;16.01;61.34
74790;BME280;63318;52.406;13.416;2023-03-30T10:07:42;100151.08;;;16.00;61.67
74790;BME280;63318;52.406;13.416;2023-03-30T10:10:30;100151.50;;;15.98;61.44
74790;BME280;63318;52.406;13.416;2023-03-30T10:13:07;100157.95;;;15.96;61.66
74790;BME280;63318;52.406;13.416;2023-03-30T10:15:39;100162.76;;;15.93;61.70
74790;BME280;63318;52.406;13.416;2023-03-30T10:18:21;100159.08;;;15.88;61.75
74790;BME280;63318;52.406;13.416;2023-03-30T10:20:53;100160.80;;;15.83;61.77
74790;BME280;63318;52.406;13.416;2023-03-30T10:23:22;100160.19;;;15.79;62.07
74790;BME280;63318;52.406;13.416;2023-03-30T10:26:01;100162.05;;;15.75;62.27
74790;BME280;63318;52.406;13.416;2023-03-30T10:28:32;100161.86;;;15.70;62.23
74790;BME280;63318;52.406;13.416;2023-03-30T10:31:02;100167.85;;;15.66;62.47
74790;BME280;63318;52.406;13.416;2023-03-30T10:33:39;100168.88;;;15.61;62.45
74790;BME280;63318;52.406;13.416;2023-03-30T10:36:11;100162.23;;;15.54;61.56
74790;BME280;63318;52.406;13.416;2023-03-30T10:38:42;100157.01;;;15.48;62.11
74790;BME280;63318;52.406;13.416;2023-03-30T10:41:13;100153.62;;;15.48;62.65
74790;BME280;63318;52.406;13.416;2023-03-30T10:43:44;100150.29;;;15.47;62.65
74790;BME280;63318;52.406;13.416;2023-03-30T10:46:15;100146.57;;;15.48;62.73
74790;BME280;63318;52.406;13.416;2023-03-30T10:49:01;100149.44;;;15.49;62.77
74790;BME280;63318;52.406;13.416;2023-03-30T10:51:43;100138.30;;;15.53;63.08
74790;BME280;63318;52.406;13.416;2023-03-30T10:54:24;100138.48;;;15.58;63.01
74790;BME280;63318;52.406;13.416;2023-03-30T10:56:58;100139.70;;;15.63;63.03
74790;BME280;63318;52.406;13.416;2023-03-30T10:59:42;100140.11;;;15.70;63.14
74790;BME280;63318;52.406;13.416;2023-03-30T11:02:38;100138.54;;;15.78;63.08
74790;BME280;63318;52.406;13.416;2023-03-30T11:05:13;100139.45;;;15.85;63.03
74790;BME280;63318;52.406;13.416;2023-03-30T11:07:48;100138.88;;;15.91;63.10
74790;BME280;63318;52.406;13.416;2023-03-30T11:10:23;100140.22;;;15.95;62.97
74790;BME280;63318;52.406;13.416;2023-03-30T11:13:00;100142.50;;;15.97;62.75
74790;BME280;63318;52.406;13.416;2023-03-30T11:15:36;100131.43;;;15.99;62.48
74790;BME280;63318;52.406;13.416;2023-03-30T11:18:12;100137.00;;;16.00;62.82
74790;BME280;63318;52.406;13.416;2023-03-30T11:20:46;100134.31;;;16.02;62.95
74790;BME280;63318;52.406;13.416;2023-03-30T11:23:24;100133.33;;;16.05;62.62
74790;BME280;63318;52.406;13.416;2023-03-30T11:25:59;100129.04;;;16.06;62.13
74790;BME280;63318;52.406;13.416;2023-03-30T11:28:49;100126.57;;;16.06;62.23
74790;BME280;63318;52.406;13.416;2023-03-30T11:31:29;100126.17;;;16.08;62.42
74790;BME280;63318;52.406;13.416;2023-03-30T11:34:06;100127.10;;;16.11;62.58
74790;BME280;63318;52.406;13.416;2023-03-30T11:36:41;100130.38;;;16.13;62.42
74790;BME280;63318;52.406;13.416;2023-03-30T11:39:14;100128.59;;;16.15;62.63
74790;BME280;63318;52.406;13.416;2023-03-30T11:41:48;100124.48;;;16.16;62.65
74790;BME280;63318;52.406;13.416;2023-03-30T11:44:19;100116.03;;;16.26;63.10
74790;BME280;63318;52.406;13.416;2023-03-30T11:46:52;100116.65;;;16.39;62.77
74790;BME280;63318;52.406;13.416;2023-03-30T11:49:41;100106.42;;;16.48;62.59
74790;BME280;63318;52.406;13.416;2023-03-30T11:52:24;100094.52;;;16.61;62.70
74790;BME280;63318;52.406;13.416;2023-03-30T11:55:21;100083.84;;;16.84;62.20
74790;BME280;63318;52.406;13.416;2023-03-30T11:57:51;100077.73;;;17.10;62.33
74790;BME280;63318;52.406;13.416;2023-03-30T12:00:36;100074.02;;;17.29;62.14
74790;BME280;63318;52.406;13.416;2023-03-30T12:06:03;100067.00;;;17.56;59.90
74790;BME280;63318;52.406;13.416;2023-03-30T12:08:47;100062.39;;;17.66;60.32
74790;BME280;63318;52.406;13.416;2023-03-30T12:11:26;100050.58;;;17.82;59.92
74790;BME280;63318;52.406;13.416;2023-03-30T12:13:58;100041.29;;;18.02;59.93
74790;BME280;63318;52.406;13.416;2023-03-30T12:16:29;100040.14;;;18.24;59.80
74790;BME280;63318;52.406;13.416;2023-03-30T12:19:10;100032.03;;;18.44;58.67
74790;BME280;63318;52.406;13.416;2023-03-30T12:21:44;100028.50;;;18.58;57.68
74790;BME280;63318;52.406;13.416;2023-03-30T12:24:21;100019.02;;;18.74;58.79
74790;BME280;63318;52.406;13.416;2023-03-30T12:26:52;100007.48;;;18.86;58.48
74790;BME280;63318;52.406;13.416;2023-03-30T12:29:21;100007.43;;;18.96;57.29
74790;BME280;63318;52.406;13.416;2023-03-30T12:32:03;100007.16;;;19.02;57.22
74790;BME280;63318;52.406;13.416;2023-03-30T12:34:35;100001.45;;;19.15;56.65
74790;BME280;63318;52.406;13.416;2023-03-30T12:37:10;99999.92;;;19.29;56.60
74790;BME280;63318;52.406;13.416;2023-03-30T12:39:42;99997.13;;;19.45;56.32
74790;BME280;63318;52.406;13.416;2023-03-30T12:42:14;99995.23;;;19.61;56.18
74790;BME280;63318;52.406;13.416;2023-03-30T12:45:00;99984.63;;;19.69;55.16
74790;BME280;63318;52.406;13.416;2023-03-30T12:47:50;99972.52;;;19.73;55.63
74790;BME280;63318;52.406;13.416;2023-03-30T12:50:30;99966.39;;;19.80;54.75
74790;BME280;63318;52.406;13.416;2023-03-30T12:53:18;99964.30;;;19.85;53.84
74790;BME280;63318;52.406;13.416;2023-03-30T12:55:55;99961.06;;;19.95;53.71
74790;BME280;63318;52.406;13.416;2023-03-30T12:58:55;99946.81;;;20.03;55.14
74790;BME280;63318;52.406;13.416;2023-03-30T13:01:42;99941.88;;;20.19;54.56
74790;BME280;63318;52.406;13.416;2023-03-30T13:04:14;99938.08;;;20.26;53.42
74790;BME280;63318;52.406;13.416;2023-03-30T13:06:51;99927.09;;;20.31;54.04
74790;BME280;63318;52.406;13.416;2023-03-30T13:09:51;99923.77;;;20.38;53.02
74790;BME280;63318;52.406;13.416;2023-03-30T13:12:32;99927.23;;;20.47;53.96
74790;BME280;63318;52.406;13.416;2023-03-30T13:15:18;99922.19;;;20.53;53.60
74790;BME280;63318;52.406;13.416;2023-03-30T13:18:00;99918.02;;;20.57;52.06
74790;BME280;63318;52.406;13.416;2023-03-30T13:20:33;99918.94;;;20.58;52.79
74790;BME280;63318;52.406;13.416;2023-03-30T13:23:22;99910.79;;;20.55;52.88
74790;BME280;63318;52.406;13.416;2023-03-30T13:26:03;99908.27;;;20.52;52.23